Kirovskij, Russia
Current Conditions -  °F | °C
As of 5:00 PM on Sunday 26 Oct 2014 (Local Time) from UHWW Reporting Station
Clear Clear  
Wind Chill: 57°   Ceiling: Unl
Heat Index: 57°   Visibility: 6mi
Dew Point:   Wind: 13mph
Humidity: 14%   Direction: 310°NW
Pressure: 29.85"   Gusts: NA
Location:  45.09°N, 133.51°E
Report Text: UHWW 260700Z 31006MPS 9999 SKC 14/M13 Q1011 TEMPO 34009G14MPSRMK 530006 QFE757/1009 2529//60
Loading
Personal Weather Stations






























Interactive Weather Map
Tropical Storm Tracking
New forecast layout! Learn more

10-Day Weather Forecast

Advertisements
Track Severe Weather on mobile